createdAt,value
2022-11-28T00:01:19.351Z,20.67
2022-11-28T00:04:25.279Z,20.73
2022-11-28T00:07:29.223Z,22.42
2022-11-28T00:10:33.425Z,19.55
2022-11-28T00:13:38.150Z,17.58
2022-11-28T00:16:42.345Z,22.85
2022-11-28T00:19:46.594Z,23.48
2022-11-28T00:22:52.170Z,19.38
2022-11-28T00:26:01.471Z,19.88
2022-11-28T00:29:05.722Z,21.00
2022-11-28T00:32:10.143Z,21.27
2022-11-28T00:35:14.512Z,21.25
2022-11-28T00:38:18.765Z,21.80
2022-11-28T00:41:26.284Z,19.08
2022-11-28T00:44:30.434Z,19.58
2022-11-28T00:47:34.140Z,20.15
2022-11-28T00:50:38.256Z,21.08
2022-11-28T00:53:44.586Z,17.70
2022-11-28T00:56:48.638Z,21.88
2022-11-28T00:59:52.730Z,24.83
2022-11-28T01:02:56.693Z,21.52
2022-11-28T01:06:02.953Z,21.92
2022-11-28T01:09:10.717Z,19.40
2022-11-28T01:12:14.554Z,20.50
2022-11-28T01:15:18.836Z,21.52
2022-11-28T01:18:23.027Z,20.67
2022-11-28T01:21:27.343Z,18.92
2022-11-28T01:24:31.400Z,21.30
2022-11-28T01:27:35.471Z,17.52
2022-11-28T01:30:39.697Z,19.65
2022-11-28T01:33:43.919Z,20.45
2022-11-28T01:36:48.197Z,19.17
2022-11-28T01:39:52.432Z,17.95
2022-11-28T01:42:56.555Z,19.85
2022-11-28T01:46:01.291Z,19.58
2022-11-28T01:49:09.297Z,18.60
2022-11-28T01:52:16.783Z,18.85
2022-11-28T01:55:24.489Z,18.60
2022-11-28T01:58:30.828Z,18.67
2022-11-28T02:01:34.852Z,17.90
2022-11-28T02:04:39.266Z,18.20
2022-11-28T02:07:44.538Z,17.00
2022-11-28T02:11:16.893Z,16.80
2022-11-28T02:14:30.765Z,16.05
2022-11-28T02:17:56.515Z,18.27
2022-11-28T02:21:29.297Z,17.35
2022-11-28T02:25:17.510Z,16.75
2022-11-28T02:28:29.617Z,23.88
2022-11-28T02:31:43.021Z,19.13
2022-11-28T02:34:53.075Z,15.82
2022-11-28T02:38:29.065Z,15.38
2022-11-28T02:41:57.837Z,19.80
2022-11-28T02:45:10.963Z,19.90
2022-11-28T02:48:47.231Z,17.13
2022-11-28T02:52:03.278Z,19.20
2022-11-28T02:55:08.551Z,17.10
2022-11-28T02:58:13.128Z,21.05
2022-11-28T03:01:25.674Z,22.60
2022-11-28T03:04:36.106Z,18.95
2022-11-28T03:07:58.155Z,18.70
2022-11-28T03:11:32.985Z,15.95
2022-11-28T03:14:50.824Z,17.27
2022-11-28T03:18:06.760Z,16.50
2022-11-28T03:21:15.053Z,17.23
2022-11-28T03:24:27.876Z,14.95
2022-11-28T03:27:37.890Z,14.80
2022-11-28T03:30:49.019Z,15.38
2022-11-28T03:33:59.567Z,15.20
2022-11-28T03:37:09.958Z,19.90
2022-11-28T03:40:20.462Z,15.80
2022-11-28T03:43:34.553Z,17.05
2022-11-28T03:46:44.697Z,15.10
2022-11-28T03:49:52.982Z,19.73
2022-11-28T03:53:03.058Z,14.50
2022-11-28T03:56:17.600Z,13.68
2022-11-28T03:59:47.968Z,13.40
2022-11-28T04:03:10.856Z,16.55
2022-11-28T04:06:21.479Z,16.48
2022-11-28T04:09:42.088Z,17.90
2022-11-28T04:13:20.061Z,18.55
2022-11-28T04:16:53.442Z,18.00
2022-11-28T04:20:27.002Z,14.35
2022-11-28T04:23:32.874Z,15.77
2022-11-28T04:26:43.632Z,12.32
2022-11-28T04:29:51.236Z,12.98
2022-11-28T04:33:01.468Z,11.80
2022-11-28T04:36:07.546Z,14.98
2022-11-28T04:39:18.244Z,12.60
2022-11-28T04:42:42.407Z,14.35
2022-11-28T04:45:52.518Z,15.30
2022-11-28T04:48:56.912Z,16.90
2022-11-28T04:52:14.919Z,14.77
2022-11-28T04:55:43.598Z,13.85
2022-11-28T04:58:50.141Z,13.75
2022-11-28T05:01:55.818Z,12.18
2022-11-28T05:05:00.051Z,12.05
2022-11-28T05:08:04.166Z,13.95
2022-11-28T05:11:08.052Z,16.00
2022-11-28T05:14:12.001Z,14.07
2022-11-28T05:17:16.191Z,16.67
2022-11-28T05:20:20.669Z,14.50
2022-11-28T05:23:24.931Z,14.18
2022-11-28T05:26:32.170Z,19.88
2022-11-28T05:29:36.200Z,16.27
2022-11-28T05:32:40.658Z,17.13
2022-11-28T05:35:44.839Z,13.30
2022-11-28T05:38:48.782Z,12.35
2022-11-28T05:41:55.231Z,13.00
2022-11-28T05:44:58.994Z,14.68
2022-11-28T05:48:02.787Z,13.48
2022-11-28T05:51:07.597Z,15.73
2022-11-28T05:54:11.951Z,14.93
2022-11-28T05:57:15.823Z,13.50
2022-11-28T06:00:20.438Z,13.43
2022-11-28T06:03:24.506Z,12.90
2022-11-28T06:06:31.292Z,15.05
2022-11-28T06:09:35.684Z,13.55
2022-11-28T06:12:39.994Z,13.43
2022-11-28T06:15:45.055Z,12.63
2022-11-28T06:18:52.589Z,14.73
2022-11-28T06:21:56.822Z,13.30
2022-11-28T06:25:00.997Z,16.17
2022-11-28T06:28:05.277Z,13.20
2022-11-28T06:31:18.198Z,12.40
2022-11-28T06:34:22.927Z,13.43
2022-11-28T06:37:28.186Z,12.18
2022-11-28T06:40:32.413Z,13.23
2022-11-28T06:43:37.400Z,15.40
2022-11-28T06:46:41.512Z,14.40
2022-11-28T06:49:45.807Z,17.23
2022-11-28T06:52:49.811Z,13.10
2022-11-28T06:55:53.721Z,13.80
2022-11-28T06:59:00.114Z,14.10
2022-11-28T07:02:07.408Z,14.68
2022-11-28T07:05:12.105Z,11.98
2022-11-28T07:08:16.174Z,15.07
2022-11-28T07:11:23.447Z,12.18
2022-11-28T07:14:27.492Z,12.75
2022-11-28T07:17:31.826Z,13.70
2022-11-28T07:20:36.115Z,17.05
2022-11-28T07:23:40.291Z,15.98
2022-11-28T07:26:45.781Z,16.05
2022-11-28T07:29:50.145Z,15.88
2022-11-28T07:32:54.409Z,13.27
2022-11-28T07:36:04.508Z,11.98
2022-11-28T07:39:13.621Z,13.23
2022-11-28T07:42:17.985Z,15.25
2022-11-28T07:45:22.999Z,17.27
2022-11-28T07:48:27.001Z,17.92
2022-11-28T07:51:33.414Z,18.23
2022-11-28T07:54:37.509Z,16.27
2022-11-28T07:57:41.675Z,18.35
2022-11-28T08:00:45.529Z,16.63
2022-11-28T08:03:50.113Z,17.40
2022-11-28T08:06:54.238Z,19.27
2022-11-28T08:09:57.948Z,16.27
2022-11-28T08:13:02.216Z,17.67
2022-11-28T08:16:09.161Z,19.83
2022-11-28T08:19:13.947Z,16.48
2022-11-28T08:22:18.150Z,19.27
2022-11-28T08:25:21.927Z,17.65
2022-11-28T08:28:26.204Z,22.63
2022-11-28T08:31:36.173Z,16.70
2022-11-28T08:34:40.600Z,22.42
2022-11-28T08:37:44.851Z,18.90
2022-11-28T08:40:48.969Z,17.60
2022-11-28T08:43:52.751Z,20.63
2022-11-28T08:46:57.207Z,23.35
2022-11-28T08:50:01.400Z,24.33
2022-11-28T08:53:08.502Z,23.27
2022-11-28T08:56:13.126Z,20.58
2022-11-28T08:59:17.121Z,19.08
2022-11-28T09:02:25.763Z,19.60
2022-11-28T09:05:30.765Z,20.00
2022-11-28T09:08:34.528Z,19.23
2022-11-28T09:11:38.776Z,22.58
2022-11-28T09:14:42.793Z,23.25
2022-11-28T09:17:46.858Z,20.50
2022-11-28T09:20:50.898Z,20.08
2022-11-28T09:23:56.045Z,21.13
2022-11-28T09:26:59.982Z,19.60
2022-11-28T09:30:04.807Z,25.35
2022-11-28T09:33:09.652Z,23.38
2022-11-28T09:36:16.057Z,25.75
2022-11-28T09:39:20.174Z,21.35
2022-11-28T09:42:32.051Z,25.60
2022-11-28T09:45:36.359Z,24.98
2022-11-28T09:48:46.707Z,23.38
2022-11-28T09:51:57.875Z,22.50
2022-11-28T09:55:12.964Z,21.77
2022-11-28T09:58:27.258Z,24.75
2022-11-28T10:01:40.521Z,24.65
2022-11-28T10:04:49.407Z,25.35
2022-11-28T10:08:03.086Z,31.60
2022-11-28T10:11:26.789Z,23.35
2022-11-28T10:14:53.581Z,27.13
2022-11-28T10:18:36.485Z,24.65
2022-11-28T10:21:52.916Z,24.13
2022-11-28T10:25:06.232Z,19.73
2022-11-28T10:28:17.606Z,24.55
2022-11-28T10:31:36.632Z,22.35
2022-11-28T10:34:53.668Z,24.23
2022-11-28T10:37:57.674Z,27.10
2022-11-28T10:41:14.310Z,22.77
2022-11-28T10:44:26.338Z,27.98
2022-11-28T10:47:52.390Z,26.73
2022-11-28T10:51:08.207Z,22.38
2022-11-28T10:54:30.931Z,24.17
2022-11-28T10:57:45.696Z,25.45
2022-11-28T11:00:53.720Z,24.42
2022-11-28T11:03:57.852Z,26.25
2022-11-28T11:07:22.732Z,21.95
2022-11-28T11:10:49.566Z,22.25
2022-11-28T11:14:13.924Z,22.40
2022-11-28T11:17:36.233Z,21.50
2022-11-28T11:20:40.917Z,19.73
2022-11-28T11:23:46.240Z,24.15
2022-11-28T11:26:51.095Z,25.02
2022-11-28T11:29:55.748Z,25.98
2022-11-28T11:33:01.421Z,25.23
2022-11-28T11:36:21.571Z,22.58
2022-11-28T11:39:26.203Z,26.48
2022-11-28T11:42:32.913Z,22.55
2022-11-28T11:45:37.268Z,21.35
2022-11-28T11:48:44.384Z,29.27
2022-11-28T11:51:56.395Z,24.00
2022-11-28T11:55:13.416Z,22.60
2022-11-28T11:58:25.449Z,23.33
2022-11-28T12:01:31.921Z,26.95
2022-11-28T12:04:47.047Z,27.65
2022-11-28T12:08:09.851Z,21.48
2022-11-28T12:11:25.655Z,21.70
2022-11-28T12:14:35.051Z,21.13
2022-11-28T12:18:08.383Z,22.90
2022-11-28T12:21:16.066Z,22.25
2022-11-28T12:24:30.708Z,20.23
2022-11-28T12:27:56.442Z,19.83
2022-11-28T12:31:29.046Z,19.85
2022-11-28T12:34:49.742Z,18.63
2022-11-28T12:38:12.646Z,21.58
2022-11-28T12:41:37.944Z,22.33
2022-11-28T12:45:00.539Z,19.83
2022-11-28T12:48:29.024Z,18.85
2022-11-28T12:51:42.003Z,21.58
2022-11-28T12:54:57.188Z,19.55
2022-11-28T12:58:16.448Z,20.30
2022-11-28T13:01:29.670Z,19.02
2022-11-28T13:05:05.030Z,18.60
2022-11-28T13:08:27.851Z,23.25
2022-11-28T13:12:17.873Z,17.45
2022-11-28T13:15:40.963Z,22.38
2022-11-28T13:19:00.444Z,22.50
2022-11-28T13:22:23.288Z,17.30
2022-11-28T13:25:43.396Z,20.35
2022-11-28T13:28:51.264Z,15.82
2022-11-28T13:32:09.313Z,19.33
2022-11-28T13:35:15.448Z,16.52
2022-11-28T13:39:08.143Z,16.92
2022-11-28T13:42:44.247Z,18.42
2022-11-28T13:45:47.410Z,18.45
2022-11-28T13:49:13.860Z,15.00
2022-11-28T13:52:18.664Z,15.18
2022-11-28T13:55:40.718Z,17.65
2022-11-28T13:59:02.767Z,14.93
2022-11-28T14:02:21.702Z,18.83
2022-11-28T14:05:34.009Z,15.48
2022-11-28T14:08:41.247Z,16.27
2022-11-28T14:11:49.922Z,15.40
2022-11-28T14:15:18.740Z,15.52
2022-11-28T14:18:57.736Z,15.40
2022-11-28T14:22:05.684Z,15.70
2022-11-28T14:25:26.474Z,15.88
2022-11-28T14:28:36.748Z,14.00
2022-11-28T14:32:06.672Z,15.23
2022-11-28T14:35:39.536Z,16.42
2022-11-28T14:38:44.114Z,15.68
2022-11-28T14:42:06.712Z,18.02
2022-11-28T14:45:33.488Z,17.33
2022-11-28T14:48:42.051Z,18.35
2022-11-28T14:51:49.708Z,15.75
2022-11-28T14:54:54.832Z,14.30
2022-11-28T14:58:01.643Z,16.52
2022-11-28T15:01:13.278Z,22.25
2022-11-28T15:04:45.892Z,14.45
2022-11-28T15:08:07.744Z,21.67
2022-11-28T15:11:30.446Z,16.60
2022-11-28T15:14:35.110Z,16.30
2022-11-28T15:17:41.501Z,18.08
2022-11-28T15:20:53.894Z,16.52
2022-11-28T15:23:57.971Z,17.00
2022-11-28T15:27:08.141Z,21.08
2022-11-28T15:30:20.710Z,17.40
2022-11-28T15:33:26.429Z,19.50
2022-11-28T15:36:30.655Z,22.20
2022-11-28T15:39:40.268Z,17.08
2022-11-28T15:42:48.702Z,21.23
2022-11-28T15:45:58.492Z,20.55
2022-11-28T15:49:03.938Z,18.33
2022-11-28T15:52:17.454Z,17.35
2022-11-28T15:55:22.107Z,20.67
2022-11-28T15:58:29.194Z,19.17
2022-11-28T16:01:33.652Z,18.85
2022-11-28T16:04:38.277Z,19.13
2022-11-28T16:07:43.920Z,17.23
2022-11-28T16:10:48.082Z,20.42
2022-11-28T16:13:55.819Z,17.48
2022-11-28T16:17:02.563Z,20.48
2022-11-28T16:20:06.955Z,18.98
2022-11-28T16:23:19.433Z,18.95
2022-11-28T16:26:35.424Z,22.60
2022-11-28T16:29:45.439Z,19.65
2022-11-28T16:32:50.998Z,18.30
2022-11-28T16:36:08.865Z,19.02
2022-11-28T16:39:17.232Z,20.35
2022-11-28T16:42:21.350Z,17.55
2022-11-28T16:45:27.266Z,19.92
2022-11-28T16:48:35.356Z,19.27
2022-11-28T16:51:41.203Z,17.85
2022-11-28T16:54:45.224Z,22.02
2022-11-28T16:57:57.967Z,17.55
2022-11-28T17:01:02.651Z,16.60
2022-11-28T17:04:18.239Z,19.25
2022-11-28T17:07:23.986Z,17.92
2022-11-28T17:10:28.392Z,17.25
2022-11-28T17:13:32.413Z,17.88
2022-11-28T17:16:37.609Z,18.42
2022-11-28T17:19:42.442Z,19.25
2022-11-28T17:22:47.816Z,18.98
2022-11-28T17:25:52.367Z,20.08
2022-11-28T17:28:58.734Z,16.65
2022-11-28T17:32:03.506Z,18.58
2022-11-28T17:35:24.691Z,19.45
2022-11-28T17:38:31.920Z,18.05
2022-11-28T17:41:36.351Z,22.45
2022-11-28T17:44:40.846Z,21.58
2022-11-28T17:47:45.732Z,19.13
2022-11-28T17:50:50.992Z,20.23
2022-11-28T17:53:54.967Z,17.83
2022-11-28T17:56:58.996Z,21.55
2022-11-28T18:00:07.933Z,19.67
2022-11-28T18:03:13.615Z,21.10
2022-11-28T18:06:18.138Z,21.02
2022-11-28T18:09:22.466Z,22.08
2022-11-28T18:12:26.895Z,19.00
2022-11-28T18:15:32.618Z,19.40
2022-11-28T18:18:37.514Z,20.35
2022-11-28T18:21:41.541Z,21.15
2022-11-28T18:24:45.801Z,19.60
2022-11-28T18:27:50.341Z,22.17
2022-11-28T18:30:54.549Z,20.83
2022-11-28T18:34:04.000Z,19.88
2022-11-28T18:37:08.420Z,22.92
2022-11-28T18:40:12.486Z,23.92
2022-11-28T18:43:16.383Z,22.50
2022-11-28T18:46:20.853Z,23.98
2022-11-28T18:49:25.003Z,24.17
2022-11-28T18:52:29.263Z,21.02
2022-11-28T18:55:33.402Z,20.50
2022-11-28T18:58:40.371Z,25.60
2022-11-28T19:01:44.684Z,22.77
2022-11-28T19:04:48.914Z,22.00
2022-11-28T19:07:53.392Z,23.48
2022-11-28T19:11:00.955Z,21.60
2022-11-28T19:14:06.789Z,26.95
2022-11-28T19:17:12.145Z,20.40
2022-11-28T19:20:16.758Z,24.58
2022-11-28T19:23:20.623Z,23.38
2022-11-28T19:26:26.638Z,21.45
2022-11-28T19:29:31.182Z,22.95
2022-11-28T19:32:36.265Z,23.42
2022-11-28T19:35:40.332Z,22.77
2022-11-28T19:38:44.615Z,24.85
2022-11-28T19:41:50.081Z,27.27
2022-11-28T19:44:54.515Z,24.73
2022-11-28T19:47:58.859Z,25.55
2022-11-28T19:51:04.002Z,22.58
2022-11-28T19:54:08.510Z,22.08
2022-11-28T19:57:12.792Z,23.95
2022-11-28T20:00:18.149Z,24.80
2022-11-28T20:03:22.007Z,24.38
2022-11-28T20:06:28.966Z,23.05
2022-11-28T20:09:32.826Z,25.27
2022-11-28T20:12:37.066Z,23.63
2022-11-28T20:15:41.443Z,24.85
2022-11-28T20:18:45.919Z,24.77
2022-11-28T20:21:50.090Z,27.15
2022-11-28T20:24:54.246Z,25.77
2022-11-28T20:27:58.442Z,30.02
2022-11-28T20:31:03.031Z,25.05
2022-11-28T20:34:07.114Z,24.20
2022-11-28T20:37:11.681Z,29.42
2022-11-28T20:40:15.908Z,31.15
2022-11-28T20:43:21.205Z,25.05
2022-11-28T20:46:28.313Z,26.80
2022-11-28T20:49:32.427Z,27.70
2022-11-28T20:52:36.662Z,25.90
2022-11-28T20:55:40.860Z,27.33
2022-11-28T20:58:45.440Z,30.50
2022-11-28T21:01:49.959Z,28.38
2022-11-28T21:04:53.883Z,27.60
2022-11-28T21:07:57.966Z,25.38
2022-11-28T21:11:07.642Z,28.83
2022-11-28T21:14:11.886Z,29.83
2022-11-28T21:17:15.646Z,29.58
2022-11-28T21:20:19.650Z,26.90
2022-11-28T21:23:23.622Z,26.75
2022-11-28T21:26:30.591Z,30.00
2022-11-28T21:29:35.064Z,28.70
2022-11-28T21:32:39.244Z,29.33
2022-11-28T21:35:43.311Z,29.38
2022-11-28T21:38:51.871Z,30.60
2022-11-28T21:41:55.727Z,29.40
2022-11-28T21:45:00.023Z,29.23
2022-11-28T21:48:04.280Z,26.48
2022-11-28T21:51:15.418Z,28.83
2022-11-28T21:54:19.241Z,28.40
2022-11-28T21:57:23.181Z,30.20
2022-11-28T22:00:52.050Z,28.17
2022-11-28T22:06:54.688Z,30.30
2022-11-28T22:09:58.744Z,33.85
2022-11-28T22:13:03.015Z,28.85
2022-11-28T22:16:16.185Z,34.60
2022-11-28T22:19:20.794Z,28.98
2022-11-28T22:22:27.423Z,28.63
2022-11-28T22:25:31.675Z,29.77
2022-11-28T22:28:37.112Z,29.90
2022-11-28T22:31:41.042Z,31.15
2022-11-28T22:34:46.210Z,33.22
2022-11-28T22:37:53.234Z,32.30
2022-11-28T22:40:57.941Z,33.90
2022-11-28T22:44:03.854Z,31.42
2022-11-28T22:47:08.139Z,33.35
2022-11-28T22:50:11.956Z,31.15
2022-11-28T22:53:16.587Z,29.45
2022-11-28T22:56:20.799Z,34.38
2022-11-28T22:59:25.235Z,29.63
2022-11-28T23:02:29.469Z,30.55
2022-11-28T23:05:33.773Z,31.75
2022-11-28T23:08:38.494Z,32.47
2022-11-28T23:11:42.946Z,31.63
2022-11-28T23:14:48.618Z,29.90
2022-11-28T23:17:52.526Z,32.13
2022-11-28T23:20:56.329Z,30.05
2022-11-28T23:24:00.993Z,30.52
2022-11-28T23:27:05.171Z,31.45
2022-11-28T23:30:09.406Z,29.25
2022-11-28T23:33:13.266Z,34.65
2022-11-28T23:36:21.731Z,34.42
2022-11-28T23:39:25.821Z,30.73
2022-11-28T23:42:30.207Z,33.45
2022-11-28T23:45:34.323Z,31.73
2022-11-28T23:48:39.161Z,33.13
2022-11-28T23:51:43.179Z,33.00
2022-11-28T23:54:47.227Z,33.70
2022-11-28T23:57:51.265Z,30.75
